Terminal Aerodrome Forecast
Issued by NWS

Home | Current Version | Previous Version | Text Only | Print | Product List | Glossary On
Versions: 1 2 3 4 5 6 7 8 9 10 11 12 13 14 15 16 17 18 19 20 21 22 23 24 25
766
FTUS46 KMFR 281500 AAA
TAFOTH
TAF AMD
KOTH 281500Z 2815/2912 36007KT 1/4SM FG OVC002
     FM281800 35018G28KT P6SM SCT009
     FM290400 35009KT P6SM OVC008
      AMD NOT SKED=

USA.gov is the U.S. government's official web portal to all federal, state and local government web resources and services.